createdAt,value
2019-03-02T00:01:37.870Z,3.50
2019-03-02T00:04:19.607Z,3.50
2019-03-02T00:07:02.050Z,3.50
2019-03-02T00:09:43.847Z,3.50
2019-03-02T00:12:28.855Z,3.50
2019-03-02T00:15:09.440Z,3.60
2019-03-02T00:17:54.220Z,3.60
2019-03-02T00:20:35.377Z,3.60
2019-03-02T00:23:18.795Z,3.70
2019-03-02T00:26:01.135Z,3.70
2019-03-02T00:28:43.348Z,3.70
2019-03-02T00:31:25.109Z,3.60
2019-03-02T00:34:06.858Z,3.70
2019-03-02T00:36:51.074Z,3.70
2019-03-02T00:39:33.010Z,3.70
2019-03-02T00:42:17.073Z,3.70
2019-03-02T00:44:59.794Z,3.70
2019-03-02T00:47:41.769Z,3.70
2019-03-02T00:50:23.570Z,3.70
2019-03-02T00:53:05.709Z,3.70
2019-03-02T00:55:47.382Z,3.70
2019-03-02T01:01:01.404Z,3.70
2019-03-02T01:03:43.519Z,3.80
2019-03-02T01:06:25.449Z,3.80
2019-03-02T01:09:11.347Z,3.90
2019-03-02T01:11:50.810Z,3.90
2019-03-02T01:14:33.149Z,3.90
2019-03-02T01:17:15.286Z,4.00
2019-03-02T01:19:57.305Z,4.00
2019-03-02T01:22:39.473Z,4.00
2019-03-02T01:25:22.023Z,4.00
2019-03-02T01:28:06.536Z,4.00
2019-03-02T01:30:47.514Z,4.10
2019-03-02T01:33:29.353Z,4.20
2019-03-02T01:36:11.227Z,4.20
2019-03-02T01:38:54.051Z,4.20
2019-03-02T01:41:35.210Z,4.20
2019-03-02T01:44:24.612Z,4.20
2019-03-02T01:47:08.449Z,4.10
2019-03-02T01:49:50.494Z,4.10
2019-03-02T01:52:34.266Z,4.00
2019-03-02T01:55:16.661Z,3.90
2019-03-02T01:57:58.785Z,4.00
2019-03-02T02:00:40.535Z,4.00
2019-03-02T02:03:22.100Z,4.10
2019-03-02T02:06:07.510Z,3.90
2019-03-02T02:08:47.863Z,3.90
2019-03-02T02:11:29.926Z,3.80
2019-03-02T02:14:14.881Z,3.70
2019-03-02T02:16:55.458Z,3.70
2019-03-02T02:19:38.680Z,3.70
2019-03-02T02:22:21.925Z,3.80
2019-03-02T02:25:03.768Z,3.80
2019-03-02T02:27:45.498Z,3.80
2019-03-02T02:30:27.595Z,3.80
2019-03-02T02:33:09.371Z,3.80
2019-03-02T02:35:51.945Z,3.80
2019-03-02T02:38:33.720Z,3.70
2019-03-02T02:41:22.098Z,3.70
2019-03-02T02:44:00.509Z,3.70
2019-03-02T02:46:42.228Z,3.60
2019-03-02T02:49:24.459Z,3.60
2019-03-02T02:52:06.302Z,3.60
2019-03-02T02:54:48.051Z,3.60
2019-03-02T02:57:33.602Z,3.60
2019-03-02T03:00:16.506Z,3.50
2019-03-02T03:02:58.013Z,3.50
2019-03-02T03:05:40.572Z,3.50
2019-03-02T03:08:27.915Z,3.50
2019-03-02T03:11:08.334Z,3.50
2019-03-02T03:13:50.092Z,3.50
2019-03-02T03:16:32.231Z,3.50
2019-03-02T03:19:14.267Z,3.50
2019-03-02T03:21:55.954Z,3.40
2019-03-02T03:24:40.489Z,3.50
2019-03-02T03:27:21.774Z,3.50
2019-03-02T03:30:03.489Z,3.60
2019-03-02T03:32:54.163Z,3.60
2019-03-02T03:35:29.476Z,3.60
2019-03-02T03:38:11.302Z,3.60
2019-03-02T03:40:52.934Z,3.70
2019-03-02T03:43:41.552Z,3.80
2019-03-02T03:46:22.366Z,3.70
2019-03-02T03:49:02.494Z,3.80
2019-03-02T03:51:44.395Z,3.80
2019-03-02T03:54:26.230Z,3.80
2019-03-02T03:57:08.427Z,3.80
2019-03-02T03:59:53.384Z,3.90
2019-03-02T04:02:35.374Z,3.90
2019-03-02T04:05:18.566Z,3.90
2019-03-02T04:08:00.300Z,3.90
2019-03-02T04:10:42.314Z,3.90
2019-03-02T04:13:23.969Z,3.90
2019-03-02T04:16:06.091Z,3.90
2019-03-02T04:18:50.252Z,3.90
2019-03-02T04:21:31.776Z,3.90
2019-03-02T04:24:13.802Z,3.90
2019-03-02T04:26:55.538Z,3.90
2019-03-02T04:29:37.776Z,3.90
2019-03-02T04:32:27.095Z,4.00
2019-03-02T04:35:03.006Z,3.90
2019-03-02T04:37:45.049Z,3.90
2019-03-02T04:40:27.819Z,3.80
2019-03-02T04:43:10.662Z,3.80
2019-03-02T04:45:52.754Z,3.70
2019-03-02T04:48:35.800Z,3.60
2019-03-02T04:51:18.233Z,3.70
2019-03-02T04:54:01.813Z,3.70
2019-03-02T04:56:43.842Z,3.70
2019-03-02T04:59:25.859Z,3.70
2019-03-02T05:02:08.055Z,3.70
2019-03-02T05:04:50.738Z,3.50
2019-03-02T05:07:32.398Z,3.50
2019-03-02T05:10:14.298Z,3.50
2019-03-02T05:12:56.820Z,3.40
2019-03-02T05:15:39.542Z,3.50
2019-03-02T05:18:21.819Z,3.40
2019-03-02T05:21:03.579Z,3.40
2019-03-02T05:23:45.393Z,3.50
2019-03-02T05:26:27.270Z,3.40
2019-03-02T05:29:09.582Z,3.40
2019-03-02T05:31:51.626Z,3.50
2019-03-02T05:34:36.644Z,3.60
2019-03-02T05:37:17.136Z,3.60
2019-03-02T05:39:59.102Z,3.70
2019-03-02T05:42:40.880Z,3.70
2019-03-02T05:45:23.777Z,3.60
2019-03-02T05:48:06.234Z,3.60
2019-03-02T05:50:48.730Z,3.50
2019-03-02T05:53:31.174Z,3.50
2019-03-02T05:56:13.190Z,3.40
2019-03-02T05:58:54.871Z,3.30
2019-03-02T06:01:40.455Z,3.30
2019-03-02T06:04:22.092Z,3.30
2019-03-02T06:07:04.143Z,3.30
2019-03-02T06:09:46.831Z,3.30
2019-03-02T06:12:29.258Z,3.20
2019-03-02T06:15:09.898Z,3.30
2019-03-02T06:17:59.235Z,3.30
2019-03-02T06:20:42.360Z,3.40
2019-03-02T06:23:26.605Z,3.50
2019-03-02T06:26:07.747Z,3.50
2019-03-02T06:28:49.976Z,3.60
2019-03-02T06:31:32.394Z,3.60
2019-03-02T06:34:16.670Z,3.80
2019-03-02T06:36:57.670Z,3.70
2019-03-02T06:39:41.005Z,3.80
2019-03-02T06:42:29.555Z,3.90
2019-03-02T06:45:11.517Z,4.00
2019-03-02T06:48:00.939Z,4.20
2019-03-02T06:50:44.502Z,4.30
2019-03-02T06:53:26.191Z,4.40
2019-03-02T06:56:08.459Z,4.50
2019-03-02T06:58:50.726Z,4.60
2019-03-02T07:01:32.515Z,4.70
2019-03-02T07:04:17.955Z,4.80
2019-03-02T07:06:58.010Z,5.00
2019-03-02T07:09:41.841Z,5.10
2019-03-02T07:12:23.686Z,5.10
2019-03-02T07:15:08.229Z,5.40
2019-03-02T07:18:08.254Z,5.70
2019-03-02T07:20:52.220Z,5.80
2019-03-02T07:23:34.123Z,6.20
2019-03-02T07:26:19.606Z,6.50
2019-03-02T07:28:59.542Z,6.50
2019-03-02T07:31:41.638Z,6.50
2019-03-02T07:34:23.450Z,6.50
2019-03-02T07:37:05.817Z,6.60
2019-03-02T07:39:49.391Z,6.90
2019-03-02T07:42:33.495Z,7.10
2019-03-02T07:45:15.420Z,7.50
2019-03-02T07:48:00.278Z,7.80
2019-03-02T07:50:41.856Z,7.80
2019-03-02T07:53:24.870Z,7.70
2019-03-02T07:56:07.486Z,7.70
2019-03-02T07:58:51.957Z,7.60
2019-03-02T08:01:33.030Z,7.60
2019-03-02T08:04:16.734Z,7.50
2019-03-02T08:07:01.494Z,7.60
2019-03-02T08:09:42.966Z,8.00
2019-03-02T08:12:25.938Z,8.30
2019-03-02T08:15:09.546Z,8.00
2019-03-02T08:17:51.982Z,7.60
2019-03-02T08:20:33.955Z,7.50
2019-03-02T08:23:16.142Z,7.30
2019-03-02T08:25:57.945Z,7.20
2019-03-02T08:28:42.053Z,7.30
2019-03-02T08:31:23.283Z,7.40
2019-03-02T08:34:05.872Z,7.40
2019-03-02T08:36:50.270Z,7.50
2019-03-02T08:39:38.554Z,7.60
2019-03-02T08:42:22.487Z,7.70
2019-03-02T08:45:04.210Z,7.90
2019-03-02T08:47:45.870Z,8.00
2019-03-02T08:50:27.466Z,8.00
2019-03-02T08:53:09.622Z,8.10
2019-03-02T08:55:50.038Z,8.20
2019-03-02T08:58:39.374Z,8.30
2019-03-02T09:01:27.398Z,8.30
2019-03-02T09:04:10.235Z,8.30
2019-03-02T09:06:53.445Z,8.30
2019-03-02T09:09:35.119Z,8.30
2019-03-02T09:12:17.943Z,8.30
2019-03-02T09:15:01.199Z,8.30
2019-03-02T09:17:43.158Z,8.20
2019-03-02T09:20:25.117Z,8.30
2019-03-02T09:23:06.902Z,8.30
2019-03-02T09:25:49.278Z,8.30
2019-03-02T09:28:31.106Z,8.30
2019-03-02T09:31:12.829Z,8.30
2019-03-02T09:33:54.978Z,8.30
2019-03-02T09:36:36.657Z,8.30
2019-03-02T09:39:18.602Z,8.30
2019-03-02T09:42:01.501Z,8.30
2019-03-02T09:44:44.486Z,8.40
2019-03-02T09:47:26.602Z,8.30
2019-03-02T09:50:09.962Z,8.40
2019-03-02T09:52:52.298Z,8.40
2019-03-02T09:55:34.295Z,8.50
2019-03-02T09:58:16.174Z,8.70
2019-03-02T10:01:01.060Z,8.80
2019-03-02T10:03:41.987Z,8.90
2019-03-02T10:06:25.297Z,8.90
2019-03-02T10:09:07.038Z,8.90
2019-03-02T10:11:49.360Z,8.90
2019-03-02T10:14:31.449Z,8.90
2019-03-02T10:17:13.850Z,8.90
2019-03-02T10:19:55.582Z,9.00
2019-03-02T10:22:37.775Z,9.00
2019-03-02T10:25:19.722Z,9.00
2019-03-02T10:28:02.011Z,9.10
2019-03-02T10:30:43.781Z,9.20
2019-03-02T10:33:28.727Z,9.30
2019-03-02T10:36:09.551Z,9.60
2019-03-02T10:38:55.447Z,9.90
2019-03-02T10:41:35.546Z,10.00
2019-03-02T10:44:17.829Z,10.00
2019-03-02T10:47:00.358Z,9.90
2019-03-02T10:49:44.629Z,9.90
2019-03-02T10:52:26.186Z,9.80
2019-03-02T10:55:11.826Z,9.90
2019-03-02T10:57:52.139Z,9.90
2019-03-02T11:00:34.666Z,9.90
2019-03-02T11:03:16.382Z,9.90
2019-03-02T11:06:23.013Z,9.90
2019-03-02T11:09:25.614Z,10.00
2019-03-02T11:12:19.850Z,10.10
2019-03-02T11:15:11.296Z,10.20
2019-03-02T11:18:17.150Z,10.30
2019-03-02T11:21:11.730Z,10.40
2019-03-02T11:24:03.275Z,10.40
2019-03-02T11:27:05.355Z,10.40
2019-03-02T11:30:12.321Z,10.40
2019-03-02T11:33:14.622Z,10.20
2019-03-02T11:36:15.227Z,10.00
2019-03-02T11:39:08.054Z,9.90
2019-03-02T11:42:14.054Z,9.90
2019-03-02T11:45:13.007Z,9.80
2019-03-02T11:48:13.655Z,9.70
2019-03-02T11:51:24.062Z,9.80
2019-03-02T11:54:25.107Z,9.70
2019-03-02T11:57:27.399Z,9.70
2019-03-02T12:00:37.529Z,9.60
2019-03-02T12:03:27.874Z,9.60
2019-03-02T12:06:30.654Z,9.70
2019-03-02T12:09:31.770Z,9.80
2019-03-02T12:12:34.638Z,10.00
2019-03-02T12:15:36.885Z,9.90
2019-03-02T12:18:29.818Z,9.90
2019-03-02T12:21:21.163Z,9.80
2019-03-02T12:24:28.744Z,9.90
2019-03-02T12:27:22.363Z,9.90
2019-03-02T12:30:28.876Z,10.00
2019-03-02T12:33:29.814Z,9.90
2019-03-02T12:36:18.963Z,9.90
2019-03-02T12:42:26.644Z,9.70
2019-03-02T12:45:30.109Z,9.70
2019-03-02T12:48:47.002Z,9.60
2019-03-02T12:51:49.701Z,9.60
2019-03-02T12:54:52.555Z,9.60
2019-03-02T12:57:53.602Z,9.80
2019-03-02T13:00:50.698Z,9.90
2019-03-02T13:03:43.294Z,10.00
2019-03-02T13:06:53.107Z,10.00
2019-03-02T13:09:42.911Z,10.00
2019-03-02T13:12:39.009Z,10.00
2019-03-02T13:15:46.408Z,10.10
2019-03-02T13:18:35.475Z,10.20
2019-03-02T13:21:44.264Z,10.10
2019-03-02T13:24:53.651Z,10.10
2019-03-02T13:27:45.358Z,10.20
2019-03-02T13:30:40.067Z,10.30
2019-03-02T13:33:42.918Z,10.30
2019-03-02T13:36:44.156Z,10.30
2019-03-02T13:39:52.567Z,10.20
2019-03-02T13:43:04.779Z,10.30
2019-03-02T13:46:05.574Z,10.40
2019-03-02T13:49:07.451Z,10.50
2019-03-02T13:52:13.855Z,10.50
2019-03-02T13:55:22.849Z,10.60
2019-03-02T13:58:31.398Z,10.70
2019-03-02T14:01:34.139Z,10.70
2019-03-02T14:04:35.182Z,10.70
2019-03-02T14:07:36.106Z,10.80
2019-03-02T14:10:37.486Z,10.90
2019-03-02T14:13:41.470Z,11.00
2019-03-02T14:16:44.114Z,11.00
2019-03-02T14:19:48.312Z,10.90
2019-03-02T14:22:41.021Z,10.90
2019-03-02T14:28:43.457Z,10.90
2019-03-02T14:31:37.814Z,10.80
2019-03-02T14:34:43.785Z,10.80
2019-03-02T14:37:47.867Z,10.70
2019-03-02T14:40:51.193Z,10.70
2019-03-02T14:43:38.623Z,10.70
2019-03-02T14:46:29.263Z,10.70
2019-03-02T14:49:38.994Z,10.60
2019-03-02T14:52:34.934Z,10.50
2019-03-02T14:55:43.114Z,10.40
2019-03-02T14:58:38.958Z,10.40
2019-03-02T15:01:41.351Z,10.40
2019-03-02T15:04:34.946Z,10.50
2019-03-02T15:07:33.546Z,10.60
2019-03-02T15:10:36.452Z,10.60
2019-03-02T15:13:39.958Z,10.70
2019-03-02T15:16:38.168Z,10.70
2019-03-02T15:19:55.935Z,10.70
2019-03-02T15:22:51.300Z,10.70
2019-03-02T15:25:46.762Z,10.70
2019-03-02T15:28:45.746Z,10.60
2019-03-02T15:31:51.678Z,10.60
2019-03-02T15:34:57.856Z,10.60
2019-03-02T15:38:05.010Z,10.60
2019-03-02T15:41:19.118Z,10.50
2019-03-02T15:44:10.695Z,10.50
2019-03-02T15:47:21.175Z,10.40
2019-03-02T15:50:24.841Z,10.40
2019-03-02T15:53:16.230Z,10.20
2019-03-02T15:56:23.362Z,10.20
2019-03-02T15:59:20.434Z,10.10
2019-03-02T16:02:28.787Z,10.00
2019-03-02T16:05:22.346Z,9.90
2019-03-02T16:08:32.027Z,9.90
2019-03-02T16:11:35.573Z,9.80
2019-03-02T16:14:29.001Z,9.80
2019-03-02T16:17:26.315Z,9.70
2019-03-02T16:20:29.274Z,9.70
2019-03-02T16:23:33.506Z,9.60
2019-03-02T16:26:24.823Z,9.60
2019-03-02T16:29:27.551Z,9.60
2019-03-02T16:32:28.423Z,9.50
2019-03-02T16:35:29.407Z,9.40
2019-03-02T16:38:30.929Z,9.40
2019-03-02T16:41:31.104Z,9.30
2019-03-02T16:44:35.923Z,9.30
2019-03-02T16:47:48.414Z,9.30
2019-03-02T16:50:58.782Z,9.30
2019-03-02T16:53:57.327Z,9.20
2019-03-02T16:57:06.602Z,9.20
2019-03-02T17:00:10.374Z,9.10
2019-03-02T17:03:11.450Z,9.10
2019-03-02T17:06:18.215Z,9.10
2019-03-02T17:09:20.004Z,9.10
2019-03-02T17:12:29.026Z,9.00
2019-03-02T17:15:34.971Z,9.00
2019-03-02T17:18:37.666Z,8.90
2019-03-02T17:21:25.240Z,9.00
2019-03-02T17:24:27.787Z,8.90
2019-03-02T17:30:30.481Z,8.80
2019-03-02T17:33:40.305Z,8.70
2019-03-02T17:36:34.018Z,8.70
2019-03-02T17:39:36.634Z,8.70
2019-03-02T17:42:31.871Z,8.80
2019-03-02T17:45:31.918Z,8.90
2019-03-02T17:48:42.718Z,9.20
2019-03-02T17:51:43.534Z,9.10
2019-03-02T17:54:42.274Z,8.80
2019-03-02T17:57:45.003Z,8.70
2019-03-02T18:00:45.763Z,8.70
2019-03-02T18:03:50.204Z,8.60
2019-03-02T18:06:49.330Z,8.50
2019-03-02T18:09:46.510Z,8.50
2019-03-02T18:12:38.106Z,8.60
2019-03-02T18:15:47.924Z,8.30
2019-03-02T18:18:31.906Z,8.10
2019-03-02T18:21:14.986Z,7.90
2019-03-02T18:23:59.253Z,7.70
2019-03-02T18:26:41.182Z,7.60
2019-03-02T18:29:25.214Z,7.50
2019-03-02T18:32:06.938Z,7.40
2019-03-02T18:34:49.134Z,7.40
2019-03-02T18:37:31.978Z,7.30
2019-03-02T18:40:14.386Z,7.30
2019-03-02T18:42:56.783Z,7.20
2019-03-02T18:45:39.658Z,7.20
2019-03-02T18:48:41.599Z,7.20
2019-03-02T18:51:29.945Z,7.10
2019-03-02T18:54:14.561Z,7.10
2019-03-02T18:56:56.961Z,7.10
2019-03-02T18:59:39.838Z,7.00
2019-03-02T19:02:22.531Z,7.10
2019-03-02T19:05:04.830Z,7.10
2019-03-02T19:07:48.659Z,7.10
2019-03-02T19:10:30.947Z,7.00
2019-03-02T19:13:13.310Z,7.10
2019-03-02T19:15:56.159Z,7.10
2019-03-02T19:18:39.143Z,7.10
2019-03-02T19:21:21.716Z,7.10
2019-03-02T19:24:04.387Z,7.00
2019-03-02T19:26:46.815Z,7.00
2019-03-02T19:29:31.517Z,6.90
2019-03-02T19:32:14.674Z,6.90
2019-03-02T19:34:58.406Z,6.90
2019-03-02T19:37:40.847Z,6.90
2019-03-02T19:40:22.722Z,6.90
2019-03-02T19:43:05.012Z,6.90
2019-03-02T19:45:46.843Z,6.90
2019-03-02T19:48:28.830Z,6.80
2019-03-02T19:51:10.928Z,6.90
2019-03-02T19:53:53.439Z,6.90
2019-03-02T19:56:35.434Z,7.00
2019-03-02T19:59:17.258Z,6.90
2019-03-02T20:01:59.218Z,6.90
2019-03-02T20:04:41.234Z,6.90
2019-03-02T20:07:23.128Z,6.90
2019-03-02T20:10:05.421Z,6.80
2019-03-02T20:12:47.720Z,6.80
2019-03-02T20:15:30.499Z,6.70
2019-03-02T20:18:12.296Z,6.70
2019-03-02T20:20:54.461Z,6.60
2019-03-02T20:23:37.413Z,6.60
2019-03-02T20:26:19.611Z,6.60
2019-03-02T20:29:04.377Z,6.50
2019-03-02T20:31:46.895Z,6.50
2019-03-02T20:34:28.820Z,6.50
2019-03-02T20:37:10.582Z,6.50
2019-03-02T20:39:52.419Z,6.50
2019-03-02T20:42:34.350Z,6.40
2019-03-02T20:45:16.487Z,6.40
2019-03-02T20:47:58.445Z,6.40
2019-03-02T20:50:40.649Z,6.50
2019-03-02T20:53:22.878Z,6.50
2019-03-02T20:56:05.128Z,6.50
2019-03-02T20:58:46.986Z,6.60
2019-03-02T21:01:29.346Z,6.70
2019-03-02T21:04:13.410Z,6.80
2019-03-02T21:06:55.538Z,6.70
2019-03-02T21:09:38.069Z,6.70
2019-03-02T21:12:19.870Z,6.70
2019-03-02T21:15:01.935Z,6.70
2019-03-02T21:17:44.807Z,6.70
2019-03-02T21:20:26.950Z,6.70
2019-03-02T21:23:08.759Z,6.70
2019-03-02T21:25:50.705Z,6.60
2019-03-02T21:28:32.915Z,6.50
2019-03-02T21:31:14.859Z,6.40
2019-03-02T21:33:56.687Z,6.40
2019-03-02T21:36:38.871Z,6.30
2019-03-02T21:39:21.717Z,6.20
2019-03-02T21:42:03.526Z,6.10
2019-03-02T21:44:45.630Z,6.10
2019-03-02T21:47:27.519Z,6.10
2019-03-02T21:50:09.533Z,6.10
2019-03-02T21:52:52.178Z,6.00
2019-03-02T21:55:34.385Z,5.90
2019-03-02T21:58:16.130Z,5.90
2019-03-02T22:00:58.562Z,5.90
2019-03-02T22:03:40.806Z,6.00
2019-03-02T22:06:22.458Z,6.10
2019-03-02T22:09:05.213Z,6.00
2019-03-02T22:11:47.226Z,5.90
2019-03-02T22:14:30.478Z,5.80
2019-03-02T22:17:12.926Z,5.70
2019-03-02T22:19:54.777Z,5.60
2019-03-02T22:22:36.954Z,5.70
2019-03-02T22:25:18.880Z,5.60
2019-03-02T22:28:01.268Z,5.30
2019-03-02T22:30:43.346Z,5.20
2019-03-02T22:33:25.864Z,5.10
2019-03-02T22:36:07.672Z,5.00
2019-03-02T22:38:49.970Z,4.90
2019-03-02T22:41:31.704Z,4.70
2019-03-02T22:44:13.410Z,4.50
2019-03-02T22:46:55.602Z,4.40
2019-03-02T22:49:37.894Z,4.30
2019-03-02T22:52:19.727Z,4.20
2019-03-02T22:55:01.776Z,4.10
2019-03-02T22:57:43.738Z,4.10
2019-03-02T23:00:26.265Z,4.00
2019-03-02T23:03:08.810Z,4.00
2019-03-02T23:05:50.554Z,3.90
2019-03-02T23:08:32.533Z,3.90
2019-03-02T23:11:14.470Z,3.90
2019-03-02T23:13:56.650Z,3.90
2019-03-02T23:16:38.365Z,3.90
2019-03-02T23:19:20.591Z,3.90
2019-03-02T23:22:02.787Z,3.90
2019-03-02T23:24:44.906Z,3.80
2019-03-02T23:27:26.915Z,3.70
2019-03-02T23:30:09.270Z,3.70
2019-03-02T23:32:51.239Z,3.60
2019-03-02T23:35:33.316Z,3.70
2019-03-02T23:38:15.160Z,3.70
2019-03-02T23:40:57.184Z,3.60
2019-03-02T23:43:39.094Z,3.50
2019-03-02T23:46:20.971Z,3.40
2019-03-02T23:49:03.116Z,3.30
2019-03-02T23:51:45.509Z,3.20
2019-03-02T23:54:27.450Z,3.20
2019-03-02T23:57:09.394Z,3.20
2019-03-02T23:59:51.702Z,3.30
